Time;durP1;ratioP1;P1;durP2;ratioP2;P2;SDS_P1;SDS_P2;PMS_P1;PMS_P2;Temp;Humidity;BMP_temperature;BMP_pressure;BME280_temperature;BME280_humidity;BME280_pressure;Samples;Min_cycle;Max_cycle;Signal;HPM_P1;HPM_P2
2022/09/25 00:00:46;;;;;;;6.00;3.73;;;;;;;;;;5054622;28;20236;-89
2022/09/25 00:03:15;;;;;;;4.07;3.50;;;;;;;;;;5053667;28;20229;-89
2022/09/25 00:05:44;;;;;;;4.67;4.17;;;;;;;;;;5053870;28;20230;-89
2022/09/25 00:08:11;;;;;;;4.87;4.27;;;;;;;;;;5053623;28;20210;-88
2022/09/25 00:10:40;;;;;;;4.80;4.37;;;;;;;;;;5054124;28;20205;-88
2022/09/25 00:13:08;;;;;;;5.93;4.33;;;;;;;;;;5053739;28;20233;-89
2022/09/25 00:15:35;;;;;;;8.30;6.90;;;;;;;;;;5053789;28;20198;-89
2022/09/25 00:18:02;;;;;;;5.77;4.70;;;;;;;;;;5053824;28;20252;-90
2022/09/25 00:20:30;;;;;;;4.90;4.40;;;;;;;;;;5053795;28;20659;-89
2022/09/25 00:22:59;;;;;;;4.80;4.30;;;;;;;;;;5053086;28;20226;-89
2022/09/25 00:25:27;;;;;;;7.47;5.10;;;;;;;;;;5053500;28;20903;-89
2022/09/25 00:27:55;;;;;;;5.00;4.10;;;;;;;;;;5054066;28;20302;-90
2022/09/25 00:30:22;;;;;;;5.13;4.63;;;;;;;;;;5053205;28;20292;-90
2022/09/25 00:32:49;;;;;;;6.77;4.63;;;;;;;;;;5054004;28;20321;-89
2022/09/25 00:35:16;;;;;;;5.30;4.50;;;;;;;;;;5053299;28;20261;-89
2022/09/25 00:37:49;;;;;;;5.40;4.90;;;;;;;;;;5054049;28;20214;-90
2022/09/25 00:40:16;;;;;;;6.03;5.43;;;;;;;;;;5067558;28;20221;-92
2022/09/25 00:42:43;;;;;;;5.97;5.37;;;;;;;;;;5055645;28;20237;-90
2022/09/25 00:45:16;;;;;;;4.53;4.13;;;;;;;;;;5053024;28;20241;-89
2022/09/25 00:47:49;;;;;;;5.17;4.67;;;;;;;;;;5053782;28;20190;-89
2022/09/25 00:50:19;;;;;;;7.13;4.53;;;;;;;;;;5053465;28;20237;-89
2022/09/25 00:52:47;;;;;;;5.57;4.97;;;;;;;;;;5054295;28;20308;-90
2022/09/25 00:55:15;;;;;;;5.23;4.67;;;;;;;;;;5053803;28;20650;-90
2022/09/25 00:57:44;;;;;;;5.23;4.70;;;;;;;;;;5053640;28;20217;-90
2022/09/25 01:00:12;;;;;;;5.27;4.77;;;;;;;;;;5053468;28;20237;-90
2022/09/25 01:02:41;;;;;;;6.10;5.53;;;;;;;;;;5053741;28;20253;-90
2022/09/25 01:05:11;;;;;;;6.70;5.37;;;;;;;;;;5052967;28;20233;-89
2022/09/25 01:07:40;;;;;;;8.00;5.43;;;;;;;;;;5054521;28;20213;-89
2022/09/25 01:10:07;;;;;;;7.53;5.63;;;;;;;;;;5054205;28;20234;-89
2022/09/25 01:12:38;;;;;;;6.07;5.47;;;;;;;;;;5054454;28;20308;-89
2022/09/25 01:15:06;;;;;;;6.23;5.63;;;;;;;;;;5054085;28;20316;-90
2022/09/25 01:17:38;;;;;;;7.07;6.07;;;;;;;;;;5054851;28;20214;-89
2022/09/25 01:20:14;;;;;;;6.50;5.70;;;;;;;;;;5054416;28;20234;-89
2022/09/25 01:22:47;;;;;;;7.03;5.80;;;;;;;;;;5054529;28;20252;-89
2022/09/25 01:25:17;;;;;;;5.73;5.00;;;;;;;;;;5053904;28;20238;-89
2022/09/25 01:28:08;;;;;;;6.40;5.30;;;;;;;;;;5055193;28;20202;-91
2022/09/25 01:30:40;;;;;;;8.13;5.47;;;;;;;;;;5054467;28;20380;-89
2022/09/25 01:33:10;;;;;;;8.27;5.50;;;;;;;;;;5053923;28;20226;-89
2022/09/25 01:35:41;;;;;;;8.60;6.13;;;;;;;;;;5054225;28;20289;-89
2022/09/25 01:38:14;;;;;;;6.33;5.57;;;;;;;;;;5053483;28;20187;-89
2022/09/25 01:40:44;;;;;;;6.73;5.63;;;;;;;;;;5054019;28;20229;-89
2022/09/25 01:43:13;;;;;;;5.90;5.40;;;;;;;;;;5059307;28;20238;-89
2022/09/25 01:45:43;;;;;;;6.50;5.83;;;;;;;;;;5062594;28;20628;-89
2022/09/25 01:48:12;;;;;;;7.93;6.00;;;;;;;;;;5057319;28;20210;-89
2022/09/25 01:50:42;;;;;;;6.33;5.10;;;;;;;;;;5054065;28;20603;-89
2022/09/25 01:53:11;;;;;;;6.87;5.80;;;;;;;;;;5052822;28;20236;-90
2022/09/25 01:55:41;;;;;;;6.77;5.80;;;;;;;;;;5053573;28;20546;-89
2022/09/25 01:58:10;;;;;;;6.80;5.60;;;;;;;;;;5052791;28;20709;-89
2022/09/25 02:00:39;;;;;;;7.93;6.20;;;;;;;;;;5053380;28;20596;-89
2022/09/25 02:03:11;;;;;;;6.97;6.27;;;;;;;;;;5052652;28;20236;-89
2022/09/25 02:05:41;;;;;;;6.37;5.50;;;;;;;;;;5052986;28;20219;-89
2022/09/25 02:08:10;;;;;;;6.10;5.40;;;;;;;;;;5052846;28;20214;-90
2022/09/25 02:10:42;;;;;;;6.07;5.43;;;;;;;;;;5054046;28;20216;-90
2022/09/25 02:13:11;;;;;;;9.00;5.97;;;;;;;;;;5056137;28;20230;-89
2022/09/25 02:15:41;;;;;;;7.00;5.30;;;;;;;;;;5063525;28;20707;-89
2022/09/25 02:20:59;;;;;;;7.17;5.83;;;;;;;;;;5071378;28;20209;-89
2022/09/25 02:23:30;;;;;;;8.77;5.97;;;;;;;;;;5058686;28;20699;-89
2022/09/25 02:26:01;;;;;;;7.43;6.33;;;;;;;;;;5058848;28;20221;-89
2022/09/25 02:28:28;;;;;;;7.17;6.47;;;;;;;;;;5058286;28;20236;-89
2022/09/25 02:30:57;;;;;;;7.40;6.50;;;;;;;;;;5058133;28;20296;-89
2022/09/25 02:33:26;;;;;;;9.07;6.43;;;;;;;;;;5056605;28;20253;-89
2022/09/25 02:35:54;;;;;;;8.87;6.43;;;;;;;;;;5057670;28;20279;-89
2022/09/25 02:38:22;;;;;;;10.60;6.80;;;;;;;;;;5057000;28;20230;-89
2022/09/25 02:40:54;;;;;;;9.30;7.40;;;;;;;;;;5057358;28;20255;-89
2022/09/25 02:43:27;;;;;;;8.37;7.37;;;;;;;;;;5056205;28;20276;-89
2022/09/25 02:46:01;;;;;;;8.23;7.43;;;;;;;;;;5056812;28;20682;-89
2022/09/25 02:48:34;;;;;;;9.20;7.50;;;;;;;;;;5056607;28;20727;-89
2022/09/25 02:51:09;;;;;;;8.73;7.27;;;;;;;;;;5056104;28;20615;-90
2022/09/25 02:53:38;;;;;;;8.23;7.03;;;;;;;;;;5055789;28;20244;-89
2022/09/25 02:56:09;;;;;;;7.77;6.40;;;;;;;;;;5056636;28;20665;-89
2022/09/25 02:58:38;;;;;;;11.00;7.50;;;;;;;;;;5055896;28;20237;-89
2022/09/25 03:01:07;;;;;;;11.67;8.13;;;;;;;;;;5056947;28;20202;-90
2022/09/25 03:03:38;;;;;;;10.57;8.43;;;;;;;;;;5055619;28;20242;-90
2022/09/25 03:06:07;;;;;;;10.37;8.60;;;;;;;;;;5056537;28;20229;-89
2022/09/25 03:08:40;;;;;;;12.20;8.37;;;;;;;;;;5056602;28;20238;-89
2022/09/25 03:11:08;;;;;;;13.97;9.20;;;;;;;;;;5056589;28;20202;-89
2022/09/25 03:13:36;;;;;;;12.87;9.67;;;;;;;;;;5055552;28;20244;-89
2022/09/25 03:16:07;;;;;;;11.07;9.37;;;;;;;;;;5056558;28;20212;-89
2022/09/25 03:18:36;;;;;;;11.60;9.40;;;;;;;;;;5055693;28;20268;-89
2022/09/25 03:21:04;;;;;;;17.40;10.43;;;;;;;;;;5056161;28;20217;-89
2022/09/25 03:23:31;;;;;;;13.17;10.23;;;;;;;;;;5055069;28;20238;-89
2022/09/25 03:25:58;;;;;;;11.33;9.57;;;;;;;;;;5056482;28;20225;-90
2022/09/25 03:28:26;;;;;;;17.07;10.67;;;;;;;;;;5055731;28;20235;-89
2022/09/25 03:30:57;;;;;;;16.40;11.37;;;;;;;;;;5056316;28;20224;-89
2022/09/25 03:33:24;;;;;;;15.10;11.10;;;;;;;;;;5055308;28;20241;-89
2022/09/25 03:36:01;;;;;;;16.13;11.30;;;;;;;;;;5056687;28;20206;-89
2022/09/25 03:38:28;;;;;;;18.20;13.00;;;;;;;;;;5056911;28;20233;-88
2022/09/25 03:40:55;;;;;;;16.03;11.50;;;;;;;;;;5056139;28;20662;-89
2022/09/25 03:43:23;;;;;;;16.77;11.70;;;;;;;;;;5055509;28;20682;-89
2022/09/25 03:45:50;;;;;;;17.03;11.63;;;;;;;;;;5056688;28;20233;-89
2022/09/25 03:48:17;;;;;;;16.13;11.70;;;;;;;;;;5070550;28;20236;-89
2022/09/25 03:50:45;;;;;;;17.10;12.27;;;;;;;;;;5058367;28;20209;-89
2022/09/25 03:53:13;;;;;;;17.17;11.73;;;;;;;;;;5056108;28;20222;-89
2022/09/25 03:56:15;;;;;;;15.73;11.47;;;;;;;;;;5056317;28;20214;-90
2022/09/25 03:58:43;;;;;;;13.80;10.83;;;;;;;;;;5055037;28;20241;-89
2022/09/25 04:01:10;;;;;;;23.80;16.30;;;;;;;;;;5056192;28;20218;-90
2022/09/25 04:03:38;;;;;;;37.90;24.60;;;;;;;;;;5055262;28;20324;-90
2022/09/25 04:06:06;;;;;;;26.13;17.10;;;;;;;;;;5055674;28;20725;-89
2022/09/25 04:08:35;;;;;;;21.43;15.23;;;;;;;;;;5055546;28;20233;-89
2022/09/25 04:11:02;;;;;;;18.10;13.57;;;;;;;;;;5055910;28;20206;-89
2022/09/25 04:13:31;;;;;;;20.63;13.10;;;;;;;;;;5054711;28;20237;-90
2022/09/25 04:15:58;;;;;;;18.30;13.77;;;;;;;;;;5055710;28;20204;-89
2022/09/25 04:18:27;;;;;;;22.90;13.93;;;;;;;;;;5054749;28;20657;-89
2022/09/25 04:20:54;;;;;;;21.23;14.00;;;;;;;;;;5055611;28;20274;-90
2022/09/25 04:23:21;;;;;;;22.53;14.33;;;;;;;;;;5054560;28;20241;-90
2022/09/25 04:25:49;;;;;;;18.47;13.63;;;;;;;;;;5055039;28;20681;-89
2022/09/25 04:28:17;;;;;;;19.57;13.60;;;;;;;;;;5054681;28;20283;-89
2022/09/25 04:30:44;;;;;;;20.87;13.90;;;;;;;;;;5055249;28;20279;-89
2022/09/25 04:35:56;;;;;;;25.70;14.00;;;;;;;;;;5053147;28;20645;-89
2022/09/25 04:38:23;;;;;;;25.23;15.00;;;;;;;;;;5052720;28;20234;-90
2022/09/25 04:40:51;;;;;;;21.13;13.57;;;;;;;;;;5054018;28;20213;-90
2022/09/25 04:43:18;;;;;;;23.70;15.13;;;;;;;;;;5053329;28;20242;-89
2022/09/25 04:45:46;;;;;;;26.70;15.47;;;;;;;;;;5053332;28;20205;-90
2022/09/25 04:48:13;;;;;;;23.63;14.77;;;;;;;;;;5052855;28;20597;-90
2022/09/25 04:50:41;;;;;;;28.07;17.10;;;;;;;;;;5052850;28;20201;-90
2022/09/25 04:53:08;;;;;;;24.97;14.33;;;;;;;;;;5052963;28;20226;-89
2022/09/25 04:55:35;;;;;;;27.10;15.13;;;;;;;;;;5052906;28;20209;-89
2022/09/25 04:58:03;;;;;;;24.10;14.27;;;;;;;;;;5052269;28;20213;-89
2022/09/25 05:00:32;;;;;;;26.30;15.57;;;;;;;;;;5052859;28;20209;-89
2022/09/25 05:02:59;;;;;;;29.13;16.13;;;;;;;;;;5052799;28;20641;-89
2022/09/25 05:05:27;;;;;;;30.87;17.43;;;;;;;;;;5053103;28;20198;-89
2022/09/25 05:07:54;;;;;;;31.90;17.20;;;;;;;;;;5052050;28;20249;-89
2022/09/25 05:10:21;;;;;;;31.80;18.00;;;;;;;;;;5053276;28;20206;-90
2022/09/25 05:12:49;;;;;;;34.87;17.93;;;;;;;;;;5054999;28;20225;-89
2022/09/25 05:15:18;;;;;;;32.20;17.83;;;;;;;;;;5053830;28;20234;-89
2022/09/25 05:17:45;;;;;;;31.63;18.27;;;;;;;;;;5053153;28;20285;-89
2022/09/25 05:20:12;;;;;;;30.33;18.30;;;;;;;;;;5053067;28;20241;-89
2022/09/25 05:22:39;;;;;;;38.70;19.40;;;;;;;;;;5052960;28;20233;-90
2022/09/25 05:25:07;;;;;;;32.20;18.33;;;;;;;;;;5052362;28;20242;-89
2022/09/25 05:27:34;;;;;;;36.83;18.10;;;;;;;;;;5052541;28;20265;-90
2022/09/25 05:30:02;;;;;;;32.97;19.30;;;;;;;;;;5052494;28;20670;-88
2022/09/25 05:32:30;;;;;;;37.17;19.23;;;;;;;;;;5053035;28;20233;-88
2022/09/25 05:34:57;;;;;;;31.33;19.33;;;;;;;;;;5053300;28;20229;-88
2022/09/25 05:37:24;;;;;;;37.63;20.87;;;;;;;;;;5053565;28;20670;-88
2022/09/25 05:39:51;;;;;;;37.93;20.27;;;;;;;;;;5055277;28;20238;-88
2022/09/25 05:42:19;;;;;;;36.37;20.43;;;;;;;;;;5063966;28;20305;-89
2022/09/25 05:44:46;;;;;;;34.27;20.70;;;;;;;;;;5054878;28;20234;-88
2022/09/25 05:47:13;;;;;;;31.97;19.87;;;;;;;;;;5057150;28;20237;-88
2022/09/25 05:49:41;;;;;;;37.63;20.60;;;;;;;;;;5057747;28;20236;-88
2022/09/25 05:52:08;;;;;;;39.00;20.90;;;;;;;;;;5057651;28;20225;-88
2022/09/25 05:54:36;;;;;;;39.63;21.43;;;;;;;;;;5056239;28;20661;-84
2022/09/25 05:57:03;;;;;;;38.67;21.17;;;;;;;;;;5056356;28;20202;-85
2022/09/25 05:59:30;;;;;;;38.00;22.37;;;;;;;;;;5056112;28;20237;-86
2022/09/25 06:01:58;;;;;;;41.23;23.20;;;;;;;;;;5050616;28;20222;-83
2022/09/25 06:04:25;;;;;;;40.00;23.47;;;;;;;;;;5036344;28;20812;-83
2022/09/25 06:06:53;;;;;;;43.00;22.73;;;;;;;;;;5042266;28;20210;-83
2022/09/25 06:09:20;;;;;;;37.57;21.83;;;;;;;;;;5042220;28;20235;-83
2022/09/25 06:11:48;;;;;;;36.23;22.10;;;;;;;;;;5036754;28;20217;-83
2022/09/25 06:14:15;;;;;;;42.80;21.70;;;;;;;;;;5037280;28;20246;-83
2022/09/25 06:16:43;;;;;;;41.77;22.83;;;;;;;;;;5045321;28;20237;-83
2022/09/25 06:19:10;;;;;;;37.27;21.53;;;;;;;;;;5038295;28;20266;-83
2022/09/25 06:21:37;;;;;;;32.23;20.67;;;;;;;;;;5035358;28;20702;-83
2022/09/25 06:24:05;;;;;;;44.77;22.73;;;;;;;;;;5035326;28;20242;-83
2022/09/25 06:26:34;;;;;;;38.20;22.00;;;;;;;;;;5045619;28;20217;-82
2022/09/25 06:29:02;;;;;;;39.00;22.20;;;;;;;;;;5051867;28;20317;-83
2022/09/25 06:31:29;;;;;;;37.17;20.80;;;;;;;;;;5052129;28;20297;-81
2022/09/25 06:33:56;;;;;;;39.07;21.07;;;;;;;;;;5051760;28;20249;-82
2022/09/25 06:36:23;;;;;;;37.97;20.47;;;;;;;;;;5052861;28;20269;-83
2022/09/25 06:38:54;;;;;;;40.23;20.20;;;;;;;;;;5056231;28;20244;-83
2022/09/25 06:41:23;;;;;;;33.87;19.63;;;;;;;;;;5059785;28;20202;-83
2022/09/25 06:43:50;;;;;;;37.83;21.53;;;;;;;;;;5042636;28;20321;-83
2022/09/25 06:46:18;;;;;;;33.40;19.87;;;;;;;;;;5066387;28;20198;-84
2022/09/25 06:48:50;;;;;;;36.50;20.50;;;;;;;;;;5077411;28;20249;-85
2022/09/25 06:51:18;;;;;;;34.77;19.30;;;;;;;;;;5059896;28;20206;-85
2022/09/25 06:53:45;;;;;;;33.50;20.10;;;;;;;;;;5055437;28;20291;-85
2022/09/25 06:56:12;;;;;;;31.37;19.37;;;;;;;;;;5057852;28;20206;-85
2022/09/25 06:58:40;;;;;;;33.10;19.37;;;;;;;;;;5056546;28;20230;-84
2022/09/25 07:01:10;;;;;;;32.77;18.73;;;;;;;;;;5052743;28;20214;-85
2022/09/25 07:03:46;;;;;;;32.27;17.87;;;;;;;;;;5056714;28;20620;-86
2022/09/25 07:06:14;;;;;;;32.83;19.83;;;;;;;;;;5056467;28;20963;-85
2022/09/25 07:08:42;;;;;;;34.23;18.27;;;;;;;;;;5056918;28;20234;-86
2022/09/25 07:11:12;;;;;;;30.60;17.97;;;;;;;;;;5058652;28;20690;-87
2022/09/25 07:13:40;;;;;;;28.37;18.10;;;;;;;;;;5056041;28;20716;-85
2022/09/25 07:16:08;;;;;;;30.37;18.07;;;;;;;;;;5058959;28;20237;-86
2022/09/25 07:18:35;;;;;;;27.53;17.07;;;;;;;;;;5057101;28;20238;-85
2022/09/25 07:21:03;;;;;;;30.43;17.80;;;;;;;;;;5055896;28;20214;-85
2022/09/25 07:23:32;;;;;;;27.90;17.33;;;;;;;;;;5055236;28;20240;-86
2022/09/25 07:26:04;;;;;;;26.53;16.17;;;;;;;;;;5057193;28;20202;-85
2022/09/25 07:28:31;;;;;;;31.07;18.77;;;;;;;;;;5054838;28;20615;-86
2022/09/25 07:31:00;;;;;;;26.50;16.27;;;;;;;;;;5057747;28;20213;-85
2022/09/25 07:33:27;;;;;;;28.47;16.87;;;;;;;;;;5055274;28;20237;-86
2022/09/25 07:35:54;;;;;;;27.97;17.17;;;;;;;;;;5056012;28;20198;-86
2022/09/25 07:38:21;;;;;;;22.57;15.90;;;;;;;;;;5056858;28;20234;-86
2022/09/25 07:40:48;;;;;;;24.63;15.60;;;;;;;;;;5055753;28;20296;-86
2022/09/25 07:43:15;;;;;;;24.37;15.50;;;;;;;;;;5053109;28;20264;-86
2022/09/25 07:45:52;;;;;;;21.93;13.50;;;;;;;;;;5053720;28;20260;-85
2022/09/25 07:48:22;;;;;;;29.17;13.93;;;;;;;;;;5052743;28;20604;-87
2022/09/25 07:50:49;;;;;;;20.17;13.30;;;;;;;;;;5053616;28;20237;-86
2022/09/25 07:53:17;;;;;;;17.00;12.40;;;;;;;;;;5052912;28;20655;-87
2022/09/25 07:55:44;;;;;;;15.70;11.30;;;;;;;;;;5053080;28;20666;-87
2022/09/25 07:58:11;;;;;;;15.53;11.27;;;;;;;;;;5052449;28;20225;-87
2022/09/25 08:00:39;;;;;;;16.50;11.47;;;;;;;;;;5052683;28;20194;-86
2022/09/25 08:03:07;;;;;;;18.20;11.63;;;;;;;;;;5052880;28;20253;-85
2022/09/25 08:05:35;;;;;;;14.33;10.50;;;;;;;;;;5053193;28;20214;-86
2022/09/25 08:08:03;;;;;;;13.37;10.87;;;;;;;;;;5052230;28;20210;-85
2022/09/25 08:10:30;;;;;;;16.77;11.47;;;;;;;;;;5052540;28;20552;-85
2022/09/25 08:12:58;;;;;;;13.50;10.77;;;;;;;;;;5052761;28;20226;-86
2022/09/25 08:15:25;;;;;;;12.03;9.37;;;;;;;;;;5053388;28;20186;-86
2022/09/25 08:17:52;;;;;;;13.03;10.07;;;;;;;;;;5054037;28;20225;-86
2022/09/25 08:20:19;;;;;;;14.23;10.47;;;;;;;;;;5053638;28;20586;-86
2022/09/25 08:22:48;;;;;;;12.87;9.50;;;;;;;;;;5053870;28;20232;-85
2022/09/25 08:25:15;;;;;;;12.87;9.47;;;;;;;;;;5052980;28;20237;-86
2022/09/25 08:27:43;;;;;;;14.03;10.37;;;;;;;;;;5053271;28;20271;-86
2022/09/25 08:30:12;;;;;;;14.50;10.53;;;;;;;;;;5053177;28;20237;-85
2022/09/25 08:32:39;;;;;;;13.47;10.30;;;;;;;;;;5053685;28;20298;-85
2022/09/25 08:35:07;;;;;;;15.30;11.60;;;;;;;;;;5044806;28;20257;-87
2022/09/25 08:37:34;;;;;;;15.77;12.63;;;;;;;;;;5033916;28;20671;-86
2022/09/25 08:40:03;;;;;;;17.47;12.27;;;;;;;;;;5032936;28;20241;-85
2022/09/25 08:42:32;;;;;;;24.00;13.30;;;;;;;;;;5033698;28;20233;-85
2022/09/25 08:50:32;;;;;;;18.00;13.60;;;;;;;;;;5053682;28;20213;-86
2022/09/25 08:53:03;;;;;;;17.30;13.93;;;;;;;;;;5043357;28;20237;-86
2022/09/25 08:58:16;;;;;;;23.20;16.33;;;;;;;;;;5051716;28;20308;-87
2022/09/25 09:00:44;;;;;;;19.03;14.63;;;;;;;;;;5048538;28;20252;-86
2022/09/25 09:03:12;;;;;;;21.77;15.70;;;;;;;;;;5044703;28;20249;-88
2022/09/25 09:05:42;;;;;;;20.53;14.03;;;;;;;;;;5053285;28;20198;-86
2022/09/25 09:08:11;;;;;;;24.17;14.97;;;;;;;;;;5052972;28;20218;-87
2022/09/25 09:10:42;;;;;;;21.67;14.77;;;;;;;;;;5054511;28;20201;-85
2022/09/25 09:13:15;;;;;;;23.43;15.10;;;;;;;;;;5053009;28;20269;-86
2022/09/25 09:15:44;;;;;;;20.87;15.10;;;;;;;;;;5053397;28;20259;-86
2022/09/25 09:18:17;;;;;;;20.37;15.00;;;;;;;;;;5052852;28;20264;-86
2022/09/25 09:20:49;;;;;;;17.77;14.07;;;;;;;;;;5052951;28;20213;-85
2022/09/25 09:23:19;;;;;;;19.13;14.73;;;;;;;;;;5056112;28;20241;-85
2022/09/25 09:25:51;;;;;;;22.07;14.97;;;;;;;;;;5056525;28;20209;-85
2022/09/25 09:28:23;;;;;;;22.80;15.13;;;;;;;;;;5057286;28;20291;-83
2022/09/25 09:30:55;;;;;;;18.63;13.90;;;;;;;;;;5057339;28;20191;-85
2022/09/25 09:33:28;;;;;;;18.03;13.63;;;;;;;;;;5056347;28;20241;-86
2022/09/25 09:36:04;;;;;;;18.70;14.10;;;;;;;;;;5040940;28;20203;-85
2022/09/25 09:38:41;;;;;;;20.70;14.43;;;;;;;;;;5035464;28;20698;-86
2022/09/25 09:41:15;;;;;;;17.67;13.83;;;;;;;;;;5036119;28;20213;-86
2022/09/25 09:43:47;;;;;;;18.40;13.67;;;;;;;;;;5035303;28;20241;-85
2022/09/25 09:46:18;;;;;;;17.53;13.30;;;;;;;;;;5036590;28;20211;-85
2022/09/25 09:48:52;;;;;;;16.17;12.60;;;;;;;;;;5034957;28;20238;-86
2022/09/25 09:51:21;;;;;;;16.90;13.60;;;;;;;;;;5036616;28;20198;-86
2022/09/25 09:53:50;;;;;;;15.60;13.23;;;;;;;;;;5036592;28;20235;-86
2022/09/25 09:56:21;;;;;;;17.50;12.53;;;;;;;;;;5043705;28;20199;-86
2022/09/25 09:58:50;;;;;;;14.37;12.77;;;;;;;;;;5051586;28;20232;-86
2022/09/25 10:01:19;;;;;;;15.03;12.10;;;;;;;;;;5062853;28;20233;-87
2022/09/25 10:03:51;;;;;;;17.83;12.83;;;;;;;;;;5077750;28;20267;-87
2022/09/25 10:06:18;;;;;;;15.23;12.37;;;;;;;;;;5069613;28;20198;-87
2022/09/25 10:08:45;;;;;;;14.53;12.17;;;;;;;;;;5040829;28;20623;-87
2022/09/25 10:11:15;;;;;;;15.23;11.93;;;;;;;;;;5050454;28;20199;-86
2022/09/25 10:13:44;;;;;;;14.10;11.80;;;;;;;;;;5035050;28;20271;-86
2022/09/25 10:16:13;;;;;;;14.13;11.53;;;;;;;;;;5035745;28;20187;-86
2022/09/25 10:18:44;;;;;;;13.20;11.30;;;;;;;;;;5035037;28;20234;-87
2022/09/25 10:21:15;;;;;;;13.87;11.47;;;;;;;;;;5055888;28;20260;-86
2022/09/25 10:23:48;;;;;;;13.37;11.33;;;;;;;;;;5057977;28;20292;-87
2022/09/25 10:26:25;;;;;;;12.07;10.20;;;;;;;;;;5056489;28;20178;-86
2022/09/25 10:28:56;;;;;;;13.23;10.60;;;;;;;;;;5055019;28;20233;-86
2022/09/25 10:31:24;;;;;;;12.10;10.83;;;;;;;;;;5055920;28;20209;-86
2022/09/25 10:34:02;;;;;;;12.67;10.60;;;;;;;;;;5054121;28;20234;-86
2022/09/25 10:36:33;;;;;;;13.70;11.27;;;;;;;;;;5054998;28;20209;-86
2022/09/25 10:39:00;;;;;;;16.47;11.17;;;;;;;;;;5054618;28;20247;-86
2022/09/25 10:41:27;;;;;;;13.00;11.10;;;;;;;;;;5055437;28;20213;-86
2022/09/25 10:43:58;;;;;;;16.53;12.60;;;;;;;;;;5054421;28;20237;-86
2022/09/25 10:50:09;;;;;;;13.93;12.40;;;;;;;;;;5057142;28;20222;-86
2022/09/25 10:52:05;;;;;;;14.53;13.03;;;;;;;;;;5054569;28;20596;-86
2022/09/25 10:54:32;;;;;;;14.27;11.63;;;;;;;;;;5054156;28;20725;-85
2022/09/25 10:56:59;;;;;;;14.10;12.23;;;;;;;;;;5054843;28;20217;-85
2022/09/25 10:59:28;;;;;;;13.50;11.57;;;;;;;;;;5054176;28;20646;-85
2022/09/25 11:01:55;;;;;;;14.97;12.03;;;;;;;;;;5054493;28;20218;-85
2022/09/25 11:04:24;;;;;;;12.73;11.07;;;;;;;;;;5054171;28;20256;-85
2022/09/25 11:06:52;;;;;;;14.70;11.47;;;;;;;;;;5054795;28;20616;-86
2022/09/25 11:09:20;;;;;;;12.23;10.97;;;;;;;;;;5052953;28;20242;-85
2022/09/25 11:11:49;;;;;;;11.80;10.50;;;;;;;;;;5053689;28;20213;-85
2022/09/25 11:14:22;;;;;;;11.37;9.90;;;;;;;;;;5053780;28;20234;-85
2022/09/25 11:16:52;;;;;;;12.77;11.47;;;;;;;;;;5054146;28;20280;-85
2022/09/25 11:19:22;;;;;;;11.50;10.30;;;;;;;;;;5053424;28;20230;-85
2022/09/25 11:21:58;;;;;;;11.87;10.37;;;;;;;;;;5053752;28;20190;-85
2022/09/25 11:24:27;;;;;;;12.20;10.67;;;;;;;;;;5052771;28;20767;-85
2022/09/25 11:26:57;;;;;;;11.07;9.97;;;;;;;;;;5053212;28;20241;-85
2022/09/25 11:29:30;;;;;;;12.30;10.47;;;;;;;;;;5052812;28;20264;-85
2022/09/25 11:32:03;;;;;;;12.30;10.10;;;;;;;;;;5053308;28;20226;-85
2022/09/25 11:34:37;;;;;;;11.93;10.03;;;;;;;;;;5053035;28;20313;-85
2022/09/25 11:37:08;;;;;;;11.63;9.60;;;;;;;;;;5053395;28;20191;-85
2022/09/25 11:42:35;;;;;;;10.47;9.37;;;;;;;;;;5067840;28;20241;-84
2022/09/25 11:45:07;;;;;;;9.27;8.20;;;;;;;;;;5060910;28;20777;-85
2022/09/25 11:47:38;;;;;;;9.53;8.60;;;;;;;;;;5058943;28;20210;-85
2022/09/25 11:50:14;;;;;;;10.27;9.17;;;;;;;;;;5059643;28;20237;-85
2022/09/25 11:52:48;;;;;;;9.53;8.23;;;;;;;;;;5057531;28;20329;-85
2022/09/25 11:55:25;;;;;;;11.90;9.50;;;;;;;;;;5056160;28;20360;-84
2022/09/25 11:57:57;;;;;;;10.40;8.93;;;;;;;;;;5058079;28;20194;-84
2022/09/25 12:00:27;;;;;;;8.97;8.07;;;;;;;;;;5056943;28;20214;-84
2022/09/25 12:03:07;;;;;;;10.10;8.33;;;;;;;;;;5058149;28;20249;-84
2022/09/25 12:05:51;;;;;;;14.83;11.90;;;;;;;;;;5054638;28;20206;-85
2022/09/25 12:08:23;;;;;;;14.73;11.07;;;;;;;;;;5052572;28;20264;-84
2022/09/25 12:10:55;;;;;;;14.57;10.63;;;;;;;;;;5052956;28;20620;-84
2022/09/25 12:13:26;;;;;;;14.83;11.60;;;;;;;;;;5052389;28;20240;-85
2022/09/25 12:16:02;;;;;;;13.47;11.37;;;;;;;;;;5053053;28;20248;-85
2022/09/25 12:18:40;;;;;;;14.23;11.67;;;;;;;;;;5050201;28;20229;-86
2022/09/25 12:21:10;;;;;;;14.17;11.20;;;;;;;;;;5052853;28;20701;-85
2022/09/25 12:23:42;;;;;;;13.63;11.43;;;;;;;;;;5052288;28;20245;-86
2022/09/25 12:26:19;;;;;;;14.30;11.37;;;;;;;;;;5052495;28;20651;-86
2022/09/25 12:28:52;;;;;;;14.87;11.23;;;;;;;;;;5051858;28;20252;-86
2022/09/25 12:31:23;;;;;;;12.97;10.93;;;;;;;;;;5052936;28;20222;-85
2022/09/25 12:33:55;;;;;;;12.63;10.83;;;;;;;;;;5052295;28;20726;-86
2022/09/25 12:36:26;;;;;;;12.37;10.67;;;;;;;;;;5051968;28;20623;-86
2022/09/25 12:38:55;;;;;;;12.80;10.23;;;;;;;;;;5032263;28;20281;-86
2022/09/25 12:41:25;;;;;;;12.80;10.30;;;;;;;;;;5035324;28;20203;-86
2022/09/25 12:43:58;;;;;;;14.27;11.13;;;;;;;;;;5034612;28;20718;-87
2022/09/25 12:46:28;;;;;;;13.27;10.03;;;;;;;;;;5035195;28;20198;-86
2022/09/25 12:48:58;;;;;;;14.13;8.87;;;;;;;;;;5034715;28;20262;-86
2022/09/25 12:51:32;;;;;;;11.20;9.20;;;;;;;;;;5035123;28;20202;-87
2022/09/25 12:54:01;;;;;;;12.70;9.50;;;;;;;;;;5035464;28;20687;-86
2022/09/25 12:56:32;;;;;;;12.07;10.13;;;;;;;;;;5034862;28;20218;-86
2022/09/25 12:59:03;;;;;;;11.90;9.57;;;;;;;;;;5034442;28;20246;-86
2022/09/25 13:01:34;;;;;;;16.90;11.97;;;;;;;;;;5041158;28;20701;-85
2022/09/25 13:04:07;;;;;;;11.10;8.93;;;;;;;;;;5053240;28;20230;-86
2022/09/25 13:06:38;;;;;;;11.70;8.63;;;;;;;;;;5055077;28;20205;-85
2022/09/25 13:09:08;;;;;;;10.23;7.73;;;;;;;;;;5054744;28;20233;-85
2022/09/25 13:11:38;;;;;;;18.33;8.50;;;;;;;;;;5055560;28;20192;-85
2022/09/25 13:14:06;;;;;;;8.57;7.67;;;;;;;;;;5053335;28;20249;-85
2022/09/25 13:16:34;;;;;;;9.27;7.83;;;;;;;;;;5054131;28;20606;-84
2022/09/25 13:19:12;;;;;;;8.67;7.77;;;;;;;;;;5051975;28;20243;-85
2022/09/25 13:21:41;;;;;;;11.40;8.20;;;;;;;;;;5051828;28;20677;-85
2022/09/25 13:24:13;;;;;;;11.23;7.37;;;;;;;;;;5052405;28;20237;-85
2022/09/25 13:26:44;;;;;;;8.27;6.70;;;;;;;;;;5035946;28;20678;-85
2022/09/25 13:29:19;;;;;;;11.63;8.70;;;;;;;;;;5032252;28;20246;-85
2022/09/25 13:31:47;;;;;;;9.63;7.10;;;;;;;;;;5032866;28;20685;-84
2022/09/25 13:34:16;;;;;;;10.63;6.97;;;;;;;;;;5031955;28;20265;-85
2022/09/25 13:36:47;;;;;;;8.47;6.87;;;;;;;;;;5033898;28;20202;-85
2022/09/25 13:42:06;;;;;;;7.97;6.40;;;;;;;;;;5033225;28;20288;-85
2022/09/25 13:44:49;;;;;;;5.97;4.60;;;;;;;;;;5041012;28;20229;-84
2022/09/25 13:47:35;;;;;;;7.57;5.13;;;;;;;;;;5042488;28;20206;-84
2022/09/25 13:50:17;;;;;;;6.63;5.10;;;;;;;;;;5035035;28;20234;-84
2022/09/25 13:53:19;;;;;;;9.10;5.40;;;;;;;;;;5051410;28;20221;-85
2022/09/25 13:56:01;;;;;;;8.47;5.80;;;;;;;;;;4984488;28;20306;-85
2022/09/25 13:58:29;;;;;;;7.07;5.03;;;;;;;;;;4988758;28;20236;-85
2022/09/25 14:00:57;;;;;;;5.63;4.50;;;;;;;;;;5028860;28;20206;-85
2022/09/25 14:03:30;;;;;;;6.33;4.23;;;;;;;;;;5055028;28;20593;-86
2022/09/25 14:05:59;;;;;;;6.27;4.83;;;;;;;;;;5049602;28;20652;-85
2022/09/25 14:08:28;;;;;;;5.33;4.83;;;;;;;;;;5045177;28;20229;-86
2022/09/25 14:10:56;;;;;;;7.83;4.83;;;;;;;;;;5056741;28;20275;-86
2022/09/25 14:13:25;;;;;;;10.43;7.70;;;;;;;;;;5056676;28;20261;-85
2022/09/25 14:15:55;;;;;;;6.07;4.87;;;;;;;;;;5059628;28;20574;-85
2022/09/25 14:18:24;;;;;;;9.43;4.80;;;;;;;;;;5056520;28;20234;-84
2022/09/25 14:20:52;;;;;;;6.50;4.10;;;;;;;;;;5066303;28;20198;-85
2022/09/25 14:23:25;;;;;;;7.37;4.70;;;;;;;;;;5060239;28;20234;-85
2022/09/25 14:25:59;;;;;;;9.70;5.00;;;;;;;;;;5057070;28;20697;-85
2022/09/25 14:28:27;;;;;;;7.33;4.40;;;;;;;;;;5058555;28;20690;-84
2022/09/25 14:31:02;;;;;;;5.50;3.93;;;;;;;;;;5058165;28;20234;-84
2022/09/25 14:33:40;;;;;;;5.63;3.87;;;;;;;;;;5055930;28;20233;-84
2022/09/25 14:36:10;;;;;;;5.83;3.93;;;;;;;;;;5058240;28;20213;-85
2022/09/25 14:38:52;;;;;;;5.87;4.13;;;;;;;;;;5057162;28;20628;-84
2022/09/25 14:41:45;;;;;;;6.03;3.60;;;;;;;;;;5055412;28;20226;-84
2022/09/25 14:44:18;;;;;;;4.73;3.77;;;;;;;;;;5038101;28;20238;-84
2022/09/25 14:46:45;;;;;;;4.97;3.97;;;;;;;;;;5051832;28;20198;-84
2022/09/25 14:49:16;;;;;;;5.10;3.57;;;;;;;;;;5053704;28;20236;-84
2022/09/25 14:51:46;;;;;;;10.47;4.20;;;;;;;;;;5053420;28;20202;-84
2022/09/25 14:54:15;;;;;;;7.23;3.97;;;;;;;;;;5055489;28;20233;-84
2022/09/25 14:56:48;;;;;;;8.63;3.43;;;;;;;;;;5057274;28;20210;-84
2022/09/25 14:59:17;;;;;;;4.83;3.00;;;;;;;;;;5057812;28;20287;-85
2022/09/25 15:01:46;;;;;;;4.10;3.00;;;;;;;;;;5054592;28;20214;-85
2022/09/25 15:04:13;;;;;;;6.93;3.23;;;;;;;;;;5059146;28;20241;-84